createdAt,value
2018-09-15T00:00:34.176Z,939.80
2018-09-15T00:01:34.163Z,939.80
2018-09-15T00:02:34.157Z,939.80
2018-09-15T00:03:34.155Z,939.76
2018-09-15T00:04:34.135Z,939.74
2018-09-15T00:05:34.163Z,939.74
2018-09-15T00:06:34.114Z,939.74
2018-09-15T00:07:34.109Z,939.74
2018-09-15T00:08:34.092Z,939.72
2018-09-15T00:09:34.086Z,939.80
2018-09-15T00:10:34.081Z,939.77
2018-09-15T00:11:34.056Z,939.78
2018-09-15T00:12:34.054Z,939.77
2018-09-15T00:13:34.035Z,939.78
2018-09-15T00:14:34.026Z,939.80
2018-09-15T00:15:34.027Z,939.79
2018-09-15T00:16:34.003Z,939.81
2018-09-15T00:17:33.992Z,939.80
2018-09-15T00:18:34.000Z,939.79
2018-09-15T00:19:33.967Z,939.84
2018-09-15T00:20:33.974Z,939.78
2018-09-15T00:21:33.945Z,939.80
2018-09-15T00:22:33.934Z,939.81
2018-09-15T00:23:33.923Z,939.81
2018-09-15T00:24:33.929Z,939.79
2018-09-15T00:25:33.922Z,939.86
2018-09-15T00:26:33.893Z,939.89
2018-09-15T00:27:33.878Z,939.89
2018-09-15T00:28:33.870Z,939.91
2018-09-15T00:29:33.859Z,939.90
2018-09-15T00:30:33.905Z,939.92
2018-09-15T00:31:33.837Z,939.92
2018-09-15T00:32:33.830Z,939.93
2018-09-15T00:33:33.814Z,939.93
2018-09-15T00:34:33.802Z,939.91
2018-09-15T00:35:33.804Z,939.90
2018-09-15T00:36:33.797Z,939.91
2018-09-15T00:37:33.767Z,939.92
2018-09-15T00:38:33.755Z,939.90
2018-09-15T00:39:33.745Z,939.87
2018-09-15T00:40:33.748Z,939.89
2018-09-15T00:41:33.722Z,939.89
2018-09-15T00:42:33.723Z,939.82
2018-09-15T00:43:33.733Z,939.86
2018-09-15T00:44:33.688Z,939.85
2018-09-15T00:45:33.691Z,939.84
2018-09-15T00:46:33.666Z,939.81
2018-09-15T00:47:33.660Z,939.79
2018-09-15T00:48:33.665Z,939.77
2018-09-15T00:49:33.640Z,939.81
2018-09-15T00:50:33.637Z,939.82
2018-09-15T00:51:33.616Z,939.86
2018-09-15T00:52:33.602Z,939.86
2018-09-15T00:53:33.590Z,939.86
2018-09-15T00:54:33.579Z,939.86
2018-09-15T00:55:33.596Z,939.86
2018-09-15T00:56:33.555Z,939.88
2018-09-15T00:57:33.556Z,939.86
2018-09-15T00:58:33.533Z,939.90
2018-09-15T00:59:33.524Z,939.89
2018-09-15T01:00:33.525Z,939.87
2018-09-15T01:01:33.509Z,939.92
2018-09-15T01:02:33.489Z,939.91
2018-09-15T01:03:33.479Z,939.86
2018-09-15T01:04:33.466Z,939.89
2018-09-15T01:05:33.475Z,939.85
2018-09-15T01:06:33.450Z,939.81
2018-09-15T01:07:33.507Z,939.80
2018-09-15T01:08:33.427Z,939.75
2018-09-15T01:09:33.411Z,939.75
2018-09-15T01:10:33.415Z,939.73
2018-09-15T01:11:33.396Z,939.74
2018-09-15T01:12:33.383Z,939.75
2018-09-15T01:13:33.390Z,939.76
2018-09-15T01:14:33.356Z,939.73
2018-09-15T01:15:33.359Z,939.72
2018-09-15T01:16:33.337Z,939.79
2018-09-15T01:17:33.327Z,939.76
2018-09-15T01:18:33.318Z,939.79
2018-09-15T01:19:33.329Z,939.85
2018-09-15T01:20:33.305Z,939.90
2018-09-15T01:21:33.282Z,939.90
2018-09-15T01:22:33.269Z,939.94
2018-09-15T01:23:33.259Z,939.91
2018-09-15T01:24:33.257Z,939.90
2018-09-15T01:25:33.303Z,939.87
2018-09-15T01:26:33.223Z,939.89
2018-09-15T01:27:33.211Z,939.86
2018-09-15T01:28:33.205Z,939.82
2018-09-15T01:29:33.192Z,939.80
2018-09-15T01:30:33.188Z,939.78
2018-09-15T01:31:33.206Z,939.78
2018-09-15T01:32:33.160Z,939.79
2018-09-15T01:33:33.145Z,939.81
2018-09-15T01:34:33.140Z,939.88
2018-09-15T01:35:33.127Z,939.91
2018-09-15T01:36:33.129Z,939.86
2018-09-15T01:37:33.109Z,939.88
2018-09-15T01:38:33.091Z,939.92
2018-09-15T01:39:33.083Z,939.91
2018-09-15T01:40:33.068Z,939.90
2018-09-15T01:41:33.082Z,939.91
2018-09-15T01:42:33.057Z,939.92
2018-09-15T01:43:33.045Z,939.94
2018-09-15T01:44:33.028Z,939.94
2018-09-15T01:45:33.024Z,939.91
2018-09-15T01:46:33.018Z,939.92
2018-09-15T01:47:32.998Z,939.89
2018-09-15T01:48:32.982Z,939.92
2018-09-15T01:49:32.978Z,939.91
2018-09-15T01:50:32.964Z,939.91
2018-09-15T01:51:32.968Z,939.95
2018-09-15T01:52:32.941Z,939.92
2018-09-15T01:53:32.928Z,939.95
2018-09-15T01:54:32.914Z,939.99
2018-09-15T01:55:32.917Z,939.98
2018-09-15T01:56:32.907Z,940.03
2018-09-15T01:57:32.963Z,939.98
2018-09-15T01:58:32.874Z,939.95
2018-09-15T01:59:32.861Z,939.95
2018-09-15T02:00:32.847Z,939.90
2018-09-15T02:01:32.856Z,939.87
2018-09-15T02:02:32.836Z,939.91
2018-09-15T02:03:32.818Z,939.93
2018-09-15T02:04:32.803Z,939.92
2018-09-15T02:05:32.815Z,939.90
2018-09-15T02:06:32.802Z,939.93
2018-09-15T02:07:32.770Z,939.90
2018-09-15T02:08:32.774Z,939.95
2018-09-15T02:09:32.752Z,939.92
2018-09-15T02:10:32.740Z,939.96
2018-09-15T02:11:32.746Z,939.93
2018-09-15T02:12:32.714Z,939.98
2018-09-15T02:13:32.708Z,940.02
2018-09-15T02:14:32.695Z,940.00
2018-09-15T02:15:32.702Z,940.03
2018-09-15T02:16:32.698Z,940.01
2018-09-15T02:17:32.669Z,940.02
2018-09-15T02:18:32.653Z,940.06
2018-09-15T02:19:32.638Z,940.07
2018-09-15T02:20:32.626Z,940.05
2018-09-15T02:21:32.634Z,940.04
2018-09-15T02:22:32.643Z,940.06
2018-09-15T02:23:32.594Z,940.08
2018-09-15T02:24:32.582Z,940.05
2018-09-15T02:25:32.571Z,940.05
2018-09-15T02:26:32.576Z,940.00
2018-09-15T02:27:32.548Z,940.08
2018-09-15T02:28:32.553Z,940.07
2018-09-15T02:29:32.526Z,940.09
2018-09-15T02:30:32.517Z,940.08
2018-09-15T02:31:32.522Z,940.04
2018-09-15T02:32:32.493Z,940.10
2018-09-15T02:33:32.483Z,940.12
2018-09-15T02:34:32.491Z,940.14
2018-09-15T02:35:32.465Z,940.15
2018-09-15T02:36:32.466Z,940.13
2018-09-15T02:37:32.449Z,940.12
2018-09-15T02:38:32.432Z,940.15
2018-09-15T02:39:32.416Z,940.17
2018-09-15T02:40:32.414Z,940.17
2018-09-15T02:41:32.418Z,940.16
2018-09-15T02:42:32.386Z,940.17
2018-09-15T02:43:32.371Z,940.17
2018-09-15T02:44:32.361Z,940.15
2018-09-15T02:45:32.354Z,940.17
2018-09-15T02:46:32.363Z,940.15
2018-09-15T02:47:32.328Z,940.16
2018-09-15T02:48:32.317Z,940.20
2018-09-15T02:49:32.306Z,940.21
2018-09-15T02:50:32.307Z,940.22
2018-09-15T02:51:32.304Z,940.24
2018-09-15T02:52:32.289Z,940.27
2018-09-15T02:53:32.262Z,940.26
2018-09-15T02:54:32.254Z,940.17
2018-09-15T02:55:32.241Z,940.19
2018-09-15T02:56:32.230Z,940.11
2018-09-15T02:57:32.240Z,940.11
2018-09-15T02:58:32.225Z,940.13
2018-09-15T02:59:32.195Z,940.13
2018-09-15T03:00:32.186Z,940.14
2018-09-15T03:01:32.179Z,940.12
2018-09-15T03:02:32.183Z,940.12
2018-09-15T03:03:32.157Z,940.11
2018-09-15T03:04:32.163Z,940.16
2018-09-15T03:05:32.133Z,940.16
2018-09-15T03:06:32.120Z,940.20
2018-09-15T03:07:32.128Z,940.24
2018-09-15T03:08:32.111Z,940.24
2018-09-15T03:09:32.094Z,940.27
2018-09-15T03:10:32.075Z,940.27
2018-09-15T03:11:32.078Z,940.28
2018-09-15T03:12:32.071Z,940.27
2018-09-15T03:13:32.048Z,940.30
2018-09-15T03:14:32.030Z,940.33
2018-09-15T03:15:32.018Z,940.27
2018-09-15T03:16:32.007Z,940.22
2018-09-15T03:17:32.049Z,940.26
2018-09-15T03:18:31.990Z,940.21
2018-09-15T03:19:31.977Z,940.17
2018-09-15T03:20:31.964Z,940.13
2018-09-15T03:21:31.957Z,940.13
2018-09-15T03:22:31.959Z,940.14
2018-09-15T03:23:31.947Z,940.16
2018-09-15T03:24:31.937Z,940.14
2018-09-15T03:25:31.909Z,940.18
2018-09-15T03:26:31.896Z,940.24
2018-09-15T03:27:31.903Z,940.28
2018-09-15T03:28:31.874Z,940.32
2018-09-15T03:29:31.880Z,940.35
2018-09-15T03:30:31.856Z,940.31
2018-09-15T03:31:31.846Z,940.38
2018-09-15T03:32:31.856Z,940.40
2018-09-15T03:33:31.859Z,940.40
2018-09-15T03:34:31.811Z,940.42
2018-09-15T03:35:31.817Z,940.44
2018-09-15T03:36:31.792Z,940.44
2018-09-15T03:37:31.791Z,940.45
2018-09-15T03:38:31.770Z,940.45
2018-09-15T03:39:31.753Z,940.41
2018-09-15T03:40:31.740Z,940.45
2018-09-15T03:41:31.806Z,940.41
2018-09-15T03:42:31.736Z,940.45
2018-09-15T03:43:31.712Z,940.44
2018-09-15T03:44:31.696Z,940.46
2018-09-15T03:45:31.687Z,940.45
2018-09-15T03:46:31.676Z,940.49
2018-09-15T03:47:31.716Z,940.50
2018-09-15T03:48:31.660Z,940.49
2018-09-15T03:49:31.641Z,940.48
2018-09-15T03:50:31.633Z,940.44
2018-09-15T03:51:31.619Z,940.43
2018-09-15T03:52:31.665Z,940.42
2018-09-15T03:53:31.597Z,940.42
2018-09-15T03:54:31.600Z,940.45
2018-09-15T03:55:31.582Z,940.47
2018-09-15T03:56:31.577Z,940.50
2018-09-15T03:57:31.567Z,940.49
2018-09-15T03:58:31.544Z,940.48
2018-09-15T03:59:31.531Z,940.49
2018-09-15T04:00:31.533Z,940.47
2018-09-15T04:01:31.510Z,940.49
2018-09-15T04:02:31.517Z,940.50
2018-09-15T04:03:31.491Z,940.53
2018-09-15T04:04:31.480Z,940.57
2018-09-15T04:05:31.464Z,940.53
2018-09-15T04:06:31.470Z,940.51
2018-09-15T04:07:31.470Z,940.52
2018-09-15T04:08:31.447Z,940.57
2018-09-15T04:09:31.423Z,940.50
2018-09-15T04:10:31.413Z,940.51
2018-09-15T04:11:31.403Z,940.48
2018-09-15T04:12:31.404Z,940.49
2018-09-15T04:13:31.394Z,940.50
2018-09-15T04:14:31.380Z,940.51
2018-09-15T04:15:31.358Z,940.51
2018-09-15T04:16:31.364Z,940.51
2018-09-15T04:17:31.347Z,940.52
2018-09-15T04:18:31.330Z,940.51
2018-09-15T04:19:31.314Z,940.51
2018-09-15T04:20:31.305Z,940.52
2018-09-15T04:21:31.288Z,940.53
2018-09-15T04:22:31.295Z,940.58
2018-09-15T04:23:31.266Z,940.57
2018-09-15T04:24:31.255Z,940.64
2018-09-15T04:25:31.265Z,940.64
2018-09-15T04:26:31.237Z,940.65
2018-09-15T04:27:31.223Z,940.66
2018-09-15T04:28:31.240Z,940.67
2018-09-15T04:29:31.203Z,940.66
2018-09-15T04:30:31.188Z,940.70
2018-09-15T04:31:31.180Z,940.68
2018-09-15T04:32:31.175Z,940.70
2018-09-15T04:33:31.174Z,940.71
2018-09-15T04:34:31.148Z,940.68
2018-09-15T04:35:31.132Z,940.68
2018-09-15T04:36:31.124Z,940.68
2018-09-15T04:37:31.116Z,940.73
2018-09-15T04:38:31.139Z,940.76
2018-09-15T04:39:31.093Z,940.75
2018-09-15T04:40:31.081Z,940.78
2018-09-15T04:41:31.083Z,940.80
2018-09-15T04:42:31.055Z,940.75
2018-09-15T04:43:31.058Z,940.79
2018-09-15T04:44:31.032Z,940.81
2018-09-15T04:45:31.030Z,940.82
2018-09-15T04:46:31.012Z,940.83
2018-09-15T04:47:31.004Z,940.85
2018-09-15T04:48:31.005Z,940.85
2018-09-15T04:49:30.978Z,940.94
2018-09-15T04:50:30.970Z,940.97
2018-09-15T04:51:30.967Z,940.94
2018-09-15T04:52:30.957Z,940.99
2018-09-15T04:53:30.954Z,941.01
2018-09-15T04:54:30.926Z,940.99
2018-09-15T04:55:30.917Z,940.98
2018-09-15T04:56:30.904Z,941.04
2018-09-15T04:57:30.922Z,940.99
2018-09-15T04:58:30.899Z,941.05
2018-09-15T04:59:30.871Z,941.09
2018-09-15T05:00:30.863Z,941.11
2018-09-15T05:01:30.849Z,941.06
2018-09-15T05:02:30.834Z,941.09
2018-09-15T05:03:30.847Z,941.10
2018-09-15T05:04:30.820Z,941.07
2018-09-15T05:05:30.801Z,941.09
2018-09-15T05:06:30.826Z,941.11
2018-09-15T05:07:30.780Z,941.10
2018-09-15T05:08:30.784Z,941.13
2018-09-15T05:09:30.767Z,941.16
2018-09-15T05:10:30.749Z,941.18
2018-09-15T05:11:30.736Z,941.18
2018-09-15T05:12:30.751Z,941.24
2018-09-15T05:13:30.727Z,941.23
2018-09-15T05:14:30.702Z,941.28
2018-09-15T05:15:30.696Z,941.29
2018-09-15T05:16:30.683Z,941.29
2018-09-15T05:17:30.668Z,941.31
2018-09-15T05:18:30.677Z,941.32
2018-09-15T05:19:30.647Z,941.31
2018-09-15T05:20:30.635Z,941.34
2018-09-15T05:21:30.635Z,941.38
2018-09-15T05:22:30.613Z,941.38
2018-09-15T05:23:30.618Z,941.36
2018-09-15T05:24:30.592Z,941.39
2018-09-15T05:25:30.579Z,941.42
2018-09-15T05:26:30.570Z,941.38
2018-09-15T05:27:30.568Z,941.39
2018-09-15T05:28:30.571Z,941.40
2018-09-15T05:29:30.535Z,941.40
2018-09-15T05:30:30.524Z,941.41
2018-09-15T05:31:30.534Z,941.39
2018-09-15T05:32:30.504Z,941.40
2018-09-15T05:33:30.521Z,941.39
2018-09-15T05:34:30.479Z,941.39
2018-09-15T05:35:30.477Z,941.43
2018-09-15T05:36:30.458Z,941.45
2018-09-15T05:37:30.448Z,941.48
2018-09-15T05:38:30.472Z,941.44
2018-09-15T05:39:30.441Z,941.45
2018-09-15T05:40:30.415Z,941.47
2018-09-15T05:41:30.402Z,941.51
2018-09-15T05:42:30.392Z,941.53
2018-09-15T05:43:30.397Z,941.54
2018-09-15T05:44:30.370Z,941.55
2018-09-15T05:45:30.373Z,941.57
2018-09-15T05:46:30.347Z,941.62
2018-09-15T05:47:30.336Z,941.62
2018-09-15T05:48:30.345Z,941.67
2018-09-15T05:49:30.326Z,941.66
2018-09-15T05:50:30.303Z,941.66
2018-09-15T05:51:30.312Z,941.69
2018-09-15T05:52:30.284Z,941.71
2018-09-15T05:53:30.299Z,941.69
2018-09-15T05:54:30.259Z,941.72
2018-09-15T05:55:30.248Z,941.75
2018-09-15T05:56:30.235Z,941.76
2018-09-15T05:57:30.234Z,941.74
2018-09-15T05:58:30.220Z,941.76
2018-09-15T05:59:30.217Z,941.78
2018-09-15T06:00:30.266Z,941.78
2018-09-15T06:01:30.202Z,941.80
2018-09-15T06:02:30.171Z,941.78
2018-09-15T06:03:30.550Z,941.81
2018-09-15T06:04:30.166Z,941.83
2018-09-15T06:05:30.148Z,941.84
2018-09-15T06:06:30.126Z,941.88
2018-09-15T06:07:30.161Z,941.85
2018-09-15T06:08:30.106Z,941.86
2018-09-15T06:09:30.119Z,941.83
2018-09-15T06:10:30.082Z,941.85
2018-09-15T06:11:30.070Z,941.83
2018-09-15T06:12:30.064Z,941.85
2018-09-15T06:13:30.078Z,941.84
2018-09-15T06:14:30.066Z,941.81
2018-09-15T06:15:30.027Z,941.84
2018-09-15T06:16:30.030Z,941.84
2018-09-15T06:17:30.004Z,941.83
2018-09-15T06:18:29.992Z,941.87
2018-09-15T06:19:30.001Z,941.87
2018-09-15T06:20:29.976Z,941.90
2018-09-15T06:21:29.963Z,941.87
2018-09-15T06:22:29.957Z,941.90
2018-09-15T06:23:29.943Z,941.95
2018-09-15T06:24:29.947Z,941.97
2018-09-15T06:25:29.918Z,941.96
2018-09-15T06:26:29.909Z,941.93
2018-09-15T06:27:29.899Z,941.95
2018-09-15T06:28:29.882Z,941.99
2018-09-15T06:29:29.896Z,942.00
2018-09-15T06:30:29.859Z,942.03
2018-09-15T06:31:29.849Z,942.01
2018-09-15T06:32:29.842Z,942.00
2018-09-15T06:33:29.831Z,942.06
2018-09-15T06:34:29.830Z,942.03
2018-09-15T06:35:29.811Z,941.99
2018-09-15T06:36:29.795Z,942.04
2018-09-15T06:37:29.786Z,942.03
2018-09-15T06:38:29.772Z,942.03
2018-09-15T06:39:29.942Z,942.08
2018-09-15T06:40:29.750Z,942.04
2018-09-15T06:41:29.754Z,942.09
2018-09-15T06:42:29.732Z,942.12
2018-09-15T06:43:30.119Z,942.12
2018-09-15T06:44:29.720Z,942.14
2018-09-15T06:45:29.823Z,942.14
2018-09-15T06:46:29.687Z,942.12
2018-09-15T06:47:29.673Z,942.13
2018-09-15T06:48:29.661Z,942.16
2018-09-15T06:49:29.673Z,942.16
2018-09-15T06:50:29.662Z,942.18
2018-09-15T06:51:29.688Z,942.14
2018-09-15T06:52:29.617Z,942.15
2018-09-15T06:53:29.610Z,942.20
2018-09-15T06:54:29.611Z,942.18
2018-09-15T06:55:29.590Z,942.21
2018-09-15T06:56:29.661Z,942.19
2018-09-15T06:57:29.561Z,942.20
2018-09-15T06:58:29.551Z,942.22
2018-09-15T06:59:29.555Z,942.24
2018-09-15T07:00:29.747Z,942.21
2018-09-15T07:01:29.545Z,942.22
2018-09-15T07:02:29.559Z,942.28
2018-09-15T07:03:29.500Z,942.28
2018-09-15T07:04:29.511Z,942.33
2018-09-15T07:05:29.475Z,942.34
2018-09-15T07:06:29.467Z,942.34
2018-09-15T07:07:29.450Z,942.35
2018-09-15T07:08:29.441Z,942.38
2018-09-15T07:09:29.428Z,942.39
2018-09-15T07:10:29.697Z,942.46
2018-09-15T07:11:29.405Z,942.42
2018-09-15T07:12:29.394Z,942.43
2018-09-15T07:13:29.386Z,942.43
2018-09-15T07:14:29.373Z,942.42
2018-09-15T07:15:29.377Z,942.46
2018-09-15T07:16:29.358Z,942.44
2018-09-15T07:17:29.340Z,942.44
2018-09-15T07:18:29.328Z,942.41
2018-09-15T07:19:29.316Z,942.42
2018-09-15T07:20:29.326Z,942.43
2018-09-15T07:21:29.293Z,942.44
2018-09-15T07:22:29.291Z,942.46
2018-09-15T07:23:29.272Z,942.45
2018-09-15T07:24:29.264Z,942.48
2018-09-15T07:25:29.269Z,942.47
2018-09-15T07:26:29.259Z,942.47
2018-09-15T07:27:29.230Z,942.49
2018-09-15T07:28:29.228Z,942.48
2018-09-15T07:29:29.211Z,942.50
2018-09-15T07:30:29.211Z,942.54
2018-09-15T07:31:29.251Z,942.52
2018-09-15T07:32:29.182Z,942.51
2018-09-15T07:33:29.166Z,942.53
2018-09-15T07:34:29.152Z,942.52
2018-09-15T07:35:29.164Z,942.50
2018-09-15T07:36:29.130Z,942.54
2018-09-15T07:37:29.150Z,942.55
2018-09-15T07:38:29.112Z,942.55
2018-09-15T07:39:29.096Z,942.59
2018-09-15T07:40:29.099Z,942.59
2018-09-15T07:41:29.080Z,942.61
2018-09-15T07:42:29.066Z,942.69
2018-09-15T07:43:29.060Z,942.66
2018-09-15T07:44:29.047Z,942.71
2018-09-15T07:45:29.047Z,942.77
2018-09-15T07:46:29.019Z,942.75
2018-09-15T07:47:29.015Z,942.76
2018-09-15T07:48:29.003Z,942.82
2018-09-15T07:49:28.989Z,942.83
2018-09-15T07:50:28.990Z,942.85
2018-09-15T07:51:29.020Z,942.84
2018-09-15T07:52:28.953Z,942.83
2018-09-15T07:53:28.950Z,942.89
2018-09-15T07:54:28.934Z,942.90
2018-09-15T07:55:28.948Z,942.90
2018-09-15T07:56:28.907Z,942.95
2018-09-15T07:57:28.975Z,942.93
2018-09-15T07:58:28.888Z,942.96
2018-09-15T07:59:28.882Z,942.93
2018-09-15T08:00:28.862Z,942.97
2018-09-15T08:01:28.873Z,942.94
2018-09-15T08:02:28.851Z,942.95
2018-09-15T08:03:28.828Z,942.97
2018-09-15T08:04:28.817Z,942.94
2018-09-15T08:05:28.815Z,942.91
2018-09-15T08:06:28.810Z,942.87
2018-09-15T08:07:28.817Z,942.85
2018-09-15T08:08:28.777Z,942.86
2018-09-15T08:09:28.766Z,942.85
2018-09-15T08:10:29.335Z,942.86
2018-09-15T08:11:28.757Z,942.80
2018-09-15T08:12:28.744Z,942.83
2018-09-15T08:13:28.717Z,942.79
2018-09-15T08:14:28.707Z,942.79
2018-09-15T08:15:28.702Z,942.79
2018-09-15T08:16:28.700Z,942.77
2018-09-15T08:17:28.672Z,942.75
2018-09-15T08:18:28.680Z,942.75
2018-09-15T08:19:28.655Z,942.79
2018-09-15T08:20:28.643Z,942.84
2018-09-15T08:21:28.645Z,942.81
2018-09-15T08:22:28.621Z,942.85
2018-09-15T08:23:28.612Z,942.87
2018-09-15T08:24:28.616Z,942.86
2018-09-15T08:25:28.584Z,942.80
2018-09-15T08:26:28.641Z,942.81
2018-09-15T08:27:28.571Z,942.79
2018-09-15T08:28:28.551Z,942.82
2018-09-15T08:29:28.541Z,942.82
2018-09-15T08:30:28.552Z,942.81
2018-09-15T08:31:28.531Z,942.76
2018-09-15T08:32:28.507Z,942.77
2018-09-15T08:33:28.501Z,942.76
2018-09-15T08:34:28.485Z,942.75
2018-09-15T08:35:28.477Z,942.77
2018-09-15T08:36:28.487Z,942.76
2018-09-15T08:37:28.458Z,942.75
2018-09-15T08:38:28.466Z,942.74
2018-09-15T08:39:28.428Z,942.78
2018-09-15T08:40:28.420Z,942.79
2018-09-15T08:41:28.436Z,942.82
2018-09-15T08:42:28.408Z,942.83
2018-09-15T08:43:28.385Z,942.89
2018-09-15T08:44:28.375Z,942.89
2018-09-15T08:45:28.368Z,942.88
2018-09-15T08:46:28.354Z,942.88
2018-09-15T08:47:28.357Z,942.90
2018-09-15T08:48:28.338Z,942.87
2018-09-15T08:49:28.321Z,942.91
2018-09-15T08:50:28.309Z,942.90
2018-09-15T08:51:28.303Z,942.90
2018-09-15T08:52:28.300Z,942.95
2018-09-15T08:53:28.282Z,942.94
2018-09-15T08:54:28.272Z,942.92
2018-09-15T08:55:28.256Z,942.96
2018-09-15T08:56:28.244Z,942.88
2018-09-15T08:57:28.271Z,942.91
2018-09-15T08:58:28.236Z,942.90
2018-09-15T08:59:28.211Z,942.93
2018-09-15T09:00:28.204Z,942.94
2018-09-15T09:01:28.198Z,942.95
2018-09-15T09:02:28.194Z,942.96
2018-09-15T09:03:28.168Z,942.98
2018-09-15T09:04:28.152Z,942.91
2018-09-15T09:05:28.140Z,942.94
2018-09-15T09:06:28.136Z,942.95
2018-09-15T09:07:28.136Z,943.00
2018-09-15T09:08:28.108Z,943.04
2018-09-15T09:09:28.096Z,942.98
2018-09-15T09:10:28.097Z,942.99
2018-09-15T09:11:28.079Z,943.01
2018-09-15T09:12:28.107Z,943.00
2018-09-15T09:13:28.057Z,943.03
2018-09-15T09:14:28.043Z,943.07
2018-09-15T09:15:28.031Z,943.04
2018-09-15T09:16:28.031Z,943.07
2018-09-15T09:17:28.022Z,943.05
2018-09-15T09:18:28.001Z,943.02
2018-09-15T09:19:27.991Z,943.07
2018-09-15T09:20:27.976Z,943.05
2018-09-15T09:21:27.964Z,943.05
2018-09-15T09:22:27.985Z,943.04
2018-09-15T09:23:27.943Z,943.03
2018-09-15T09:24:27.940Z,943.07
2018-09-15T09:25:27.923Z,943.06
2018-09-15T09:26:28.043Z,943.04
2018-09-15T09:27:27.897Z,943.07
2018-09-15T09:28:27.906Z,943.04
2018-09-15T09:29:27.877Z,943.04
2018-09-15T09:30:27.871Z,943.07
2018-09-15T09:31:27.853Z,943.03
2018-09-15T09:32:27.880Z,943.07
2018-09-15T09:33:27.844Z,943.07
2018-09-15T09:34:27.823Z,943.07
2018-09-15T09:35:27.809Z,943.05
2018-09-15T09:36:27.803Z,943.06
2018-09-15T09:37:27.793Z,943.07
2018-09-15T09:38:27.953Z,943.07
2018-09-15T09:39:27.765Z,943.02
2018-09-15T09:40:27.751Z,943.04
2018-09-15T09:41:27.815Z,943.06
2018-09-15T09:42:27.738Z,943.06
2018-09-15T09:43:27.738Z,943.08
2018-09-15T09:44:27.708Z,943.05
2018-09-15T09:45:27.699Z,943.04
2018-09-15T09:46:27.686Z,943.02
2018-09-15T09:47:27.674Z,943.06
2018-09-15T09:48:27.687Z,943.03
2018-09-15T09:49:27.652Z,943.03
2018-09-15T09:50:27.642Z,943.02
2018-09-15T09:51:27.632Z,943.02
2018-09-15T09:52:27.622Z,943.06
2018-09-15T09:53:27.637Z,943.06
2018-09-15T09:54:27.610Z,943.09
2018-09-15T09:55:27.585Z,943.09
2018-09-15T09:56:27.575Z,943.10
2018-09-15T09:57:27.567Z,943.15
2018-09-15T09:58:27.553Z,943.12
2018-09-15T09:59:27.561Z,943.10
2018-09-15T10:00:27.555Z,943.16
2018-09-15T10:01:27.522Z,943.11
2018-09-15T10:02:27.513Z,943.12
2018-09-15T10:03:27.498Z,943.15
2018-09-15T10:04:27.508Z,943.10
2018-09-15T10:05:27.482Z,943.14
2018-09-15T10:06:27.474Z,943.11
2018-09-15T10:07:35.480Z,943.11
2018-09-15T10:08:27.447Z,943.09
2018-09-15T10:09:27.445Z,943.10
2018-09-15T10:10:27.467Z,943.10
2018-09-15T10:11:27.409Z,943.10
2018-09-15T10:12:27.397Z,943.04
2018-09-15T10:13:27.387Z,943.09
2018-09-15T10:14:27.406Z,943.13
2018-09-15T10:15:27.363Z,943.11
2018-09-15T10:16:27.354Z,943.06
2018-09-15T10:17:27.355Z,943.10
2018-09-15T10:18:27.330Z,943.08
2018-09-15T10:19:27.339Z,943.01
2018-09-15T10:20:27.313Z,943.04
2018-09-15T10:21:27.301Z,943.02
2018-09-15T10:22:27.294Z,943.03
2018-09-15T10:23:27.289Z,943.02
2018-09-15T10:24:27.283Z,943.03
2018-09-15T10:25:27.254Z,943.01
2018-09-15T10:26:27.243Z,943.01
2018-09-15T10:27:27.232Z,943.02
2018-09-15T10:28:27.230Z,943.06
2018-09-15T10:29:27.224Z,943.05
2018-09-15T10:30:27.209Z,943.03
2018-09-15T10:31:27.188Z,943.06
2018-09-15T10:32:27.178Z,943.04
2018-09-15T10:33:27.166Z,943.07
2018-09-15T10:34:27.169Z,943.02
2018-09-15T10:35:27.155Z,943.03
2018-09-15T10:36:27.150Z,943.04
2018-09-15T10:37:27.127Z,943.04
2018-09-15T10:38:27.156Z,943.02
2018-09-15T10:39:27.101Z,943.01
2018-09-15T10:40:27.166Z,942.95
2018-09-15T10:41:27.085Z,943.00
2018-09-15T10:42:27.066Z,942.95
2018-09-15T10:43:27.058Z,943.01
2018-09-15T10:44:27.050Z,942.98
2018-09-15T10:45:27.052Z,943.03
2018-09-15T10:46:27.026Z,943.04
2018-09-15T10:47:27.009Z,943.05
2018-09-15T10:48:26.998Z,943.02
2018-09-15T10:49:26.998Z,942.99
2018-09-15T10:50:26.991Z,942.99
2018-09-15T10:51:26.965Z,942.99
2018-09-15T10:52:27.036Z,942.95
2018-09-15T10:53:26.945Z,942.97
2018-09-15T10:54:26.933Z,942.92
2018-09-15T10:55:26.943Z,942.92
2018-09-15T10:56:26.910Z,942.90
2018-09-15T10:57:26.911Z,942.92
2018-09-15T10:58:26.892Z,942.91
2018-09-15T10:59:26.877Z,942.92
2018-09-15T11:00:26.971Z,942.88
2018-09-15T11:01:26.858Z,942.89
2018-09-15T11:02:26.843Z,942.86
2018-09-15T11:03:26.842Z,942.88
2018-09-15T11:04:26.826Z,942.96
2018-09-15T11:05:26.831Z,942.87
2018-09-15T11:06:26.800Z,942.92
2018-09-15T11:07:26.787Z,942.91
2018-09-15T11:08:26.777Z,942.91
2018-09-15T11:09:26.774Z,942.92
2018-09-15T11:10:26.817Z,942.90
2018-09-15T11:11:26.756Z,942.92
2018-09-15T11:12:26.739Z,942.90
2018-09-15T11:13:26.891Z,942.88
2018-09-15T11:14:26.716Z,942.89
2018-09-15T11:15:26.727Z,942.89
2018-09-15T11:16:26.689Z,942.88
2018-09-15T11:17:26.685Z,942.90
2018-09-15T11:18:26.808Z,942.88
2018-09-15T11:19:26.661Z,942.86
2018-09-15T11:20:26.663Z,942.82
2018-09-15T11:21:26.646Z,942.82
2018-09-15T11:22:26.637Z,942.81
2018-09-15T11:23:26.614Z,942.80
2018-09-15T11:24:26.601Z,942.80
2018-09-15T11:25:26.727Z,942.80
2018-09-15T11:26:26.580Z,942.84
2018-09-15T11:27:26.568Z,942.87
2018-09-15T11:28:26.616Z,942.87
2018-09-15T11:29:26.545Z,942.86
2018-09-15T11:30:26.557Z,942.90
2018-09-15T11:31:26.533Z,942.89
2018-09-15T11:32:26.517Z,942.88
2018-09-15T11:33:26.506Z,942.87
2018-09-15T11:34:26.503Z,942.82
2018-09-15T11:35:26.501Z,942.87
2018-09-15T11:36:26.483Z,942.85
2018-09-15T11:37:26.457Z,942.83
2018-09-15T11:38:26.446Z,942.85
2018-09-15T11:39:26.435Z,942.85
2018-09-15T11:40:26.442Z,942.85
2018-09-15T11:41:26.413Z,942.82
2018-09-15T11:42:26.409Z,942.82
2018-09-15T11:43:26.390Z,942.85
2018-09-15T11:44:26.380Z,942.84
2018-09-15T11:45:26.384Z,942.81
2018-09-15T11:46:26.360Z,942.83
2018-09-15T11:47:26.347Z,942.81
2018-09-15T11:48:26.359Z,942.80
2018-09-15T11:49:26.328Z,942.81
2018-09-15T11:50:26.314Z,942.81
2018-09-15T11:51:26.319Z,942.74
2018-09-15T11:52:26.291Z,942.74
2018-09-15T11:53:26.284Z,942.77
2018-09-15T11:54:26.279Z,942.76
2018-09-15T11:55:26.261Z,942.80
2018-09-15T11:56:26.263Z,942.78
2018-09-15T11:57:26.241Z,942.79
2018-09-15T11:58:26.229Z,942.79
2018-09-15T11:59:26.219Z,942.79
2018-09-15T12:00:26.220Z,942.78
2018-09-15T12:01:26.210Z,942.80
2018-09-15T12:02:26.181Z,942.81
2018-09-15T12:03:26.174Z,942.78
2018-09-15T12:04:26.160Z,942.80
2018-09-15T12:05:26.153Z,942.78
2018-09-15T12:06:26.166Z,942.81
2018-09-15T12:07:26.129Z,942.77
2018-09-15T12:08:26.116Z,942.79
2018-09-15T12:09:26.107Z,942.76
2018-09-15T12:10:26.097Z,942.76
2018-09-15T12:11:26.117Z,942.73
2018-09-15T12:12:26.081Z,942.72
2018-09-15T12:13:26.063Z,942.74
2018-09-15T12:14:26.052Z,942.70
2018-09-15T12:15:26.037Z,942.75
2018-09-15T12:16:26.050Z,942.71
2018-09-15T12:17:26.019Z,942.76
2018-09-15T12:18:26.011Z,942.67
2018-09-15T12:19:25.993Z,942.68
2018-09-15T12:20:25.993Z,942.64
2018-09-15T12:21:26.031Z,942.65
2018-09-15T12:22:25.964Z,942.65
2018-09-15T12:23:25.953Z,942.65
2018-09-15T12:24:25.946Z,942.64
2018-09-15T12:25:25.926Z,942.63
2018-09-15T12:26:25.936Z,942.65
2018-09-15T12:27:25.909Z,942.61
2018-09-15T12:28:25.893Z,942.60